Time;durP1;ratioP1;P1;durP2;ratioP2;P2;SDS_P1;SDS_P2;PMS_P1;PMS_P2;Temp;Humidity;BMP_temperature;BMP_pressure;BME280_temperature;BME280_humidity;BME280_pressure;Samples;Min_cycle;Max_cycle;Signal;HPM_P1;HPM_P2
2022/12/08 00:02:28;;;;;;;10.75;5.68;;;6.00;99.90;;;5.84;100.00;100565.66;5122891;28;20456;-71
2022/12/08 00:10:44;;;;;;;15.00;6.82;;;6.00;99.90;;;5.80;100.00;100559.44;5123036;29;20055;-70
2022/12/08 00:13:16;;;;;;;13.70;6.40;;;6.00;99.90;;;5.77;100.00;100551.53;5114080;28;20103;-71
2022/12/08 00:15:48;;;;;;;15.23;7.53;;;6.00;99.90;;;5.75;100.00;100554.88;5123325;28;20083;-71
2022/12/08 00:18:21;;;;;;;13.32;6.45;;;5.90;99.90;;;5.71;100.00;100554.69;5121343;28;20043;-71
2022/12/08 00:20:57;;;;;;;12.38;6.18;;;5.90;99.90;;;5.72;100.00;100543.53;5123497;28;20057;-71
2022/12/08 00:23:30;;;;;;;12.18;6.03;;;5.90;99.90;;;5.75;100.00;100539.34;5122149;29;20113;-71
2022/12/08 00:26:03;;;;;;;13.85;5.57;;;5.90;99.90;;;5.77;100.00;100542.91;5123272;28;20049;-71
2022/12/08 00:28:35;;;;;;;11.65;5.70;;;6.00;99.90;;;5.78;100.00;100534.31;5124061;29;20408;-71
2022/12/08 00:31:09;;;;;;;10.70;5.05;;;6.00;99.90;;;5.79;100.00;100531.81;5122634;29;20061;-71
2022/12/08 00:33:41;;;;;;;12.25;5.10;;;6.00;99.90;;;5.82;100.00;100536.25;5123286;29;20063;-71
2022/12/08 00:36:15;;;;;;;9.32;4.47;;;6.00;99.90;;;5.84;100.00;100532.03;5123352;28;20126;-71
2022/12/08 00:38:47;;;;;;;10.02;4.60;;;6.00;99.90;;;5.84;100.00;100526.88;5122541;28;20047;-71
2022/12/08 00:42:10;;;;;;;10.18;4.50;;;6.00;99.90;;;5.84;100.00;100526.88;5123442;28;20045;-71
2022/12/08 00:44:18;;;;;;;10.40;4.95;;;6.00;99.90;;;5.83;100.00;100530.28;5121439;28;20050;-71
2022/12/08 00:46:51;;;;;;;8.95;4.80;;;6.00;99.90;;;5.83;100.00;100525.09;5123023;28;20139;-71
2022/12/08 00:49:23;;;;;;;10.80;4.63;;;6.00;99.90;;;5.84;100.00;100519.09;5122302;29;20047;-71
2022/12/08 00:51:57;;;;;;;11.00;5.00;;;6.00;99.90;;;5.85;100.00;100515.69;5122421;29;20051;-71
2022/12/08 00:54:29;;;;;;;9.23;4.43;;;6.00;99.90;;;5.84;100.00;100520.00;5121533;28;20510;-71
2022/12/08 00:57:01;;;;;;;9.80;4.32;;;6.00;99.90;;;5.84;100.00;100519.09;5123262;28;20400;-71
2022/12/08 00:59:34;;;;;;;9.13;4.95;;;6.00;99.90;;;5.83;100.00;100517.34;5123282;28;20057;-71
2022/12/08 01:02:06;;;;;;;8.77;4.53;;;6.00;99.90;;;5.83;100.00;100512.16;5119761;29;20047;-71
2022/12/08 01:04:38;;;;;;;8.73;4.43;;;6.00;99.90;;;5.83;100.00;100513.06;5121214;28;20038;-71
2022/12/08 01:07:12;;;;;;;9.65;4.93;;;6.00;99.90;;;5.81;100.00;100504.34;5123502;28;20094;-71
2022/12/08 01:09:44;;;;;;;8.52;4.85;;;6.00;99.90;;;5.81;100.00;100503.44;5123934;28;20055;-71
2022/12/08 01:12:16;;;;;;;9.88;4.95;;;6.00;99.90;;;5.82;100.00;100507.81;5127123;28;20051;-71
2022/12/08 01:14:48;;;;;;;10.88;4.55;;;6.00;99.90;;;5.83;100.00;100504.41;5126261;28;20052;-71
2022/12/08 01:17:20;;;;;;;8.40;4.45;;;6.00;99.90;;;5.84;100.00;100514.81;5126966;29;20427;-71
2022/12/08 01:19:53;;;;;;;6.93;3.83;;;6.00;99.90;;;5.85;100.00;100505.34;5125231;29;20137;-72
2022/12/08 01:22:26;;;;;;;7.28;4.03;;;6.00;99.90;;;5.85;100.00;100513.13;5126856;29;20051;-71
2022/12/08 01:24:58;;;;;;;9.40;4.03;;;6.00;99.90;;;5.83;100.00;100507.88;5126131;28;20062;-71
2022/12/08 01:27:30;;;;;;;8.15;4.13;;;6.00;99.90;;;5.83;100.00;100505.28;5126443;29;20527;-71
2022/12/08 01:30:03;;;;;;;8.85;4.35;;;6.00;99.90;;;5.84;100.00;100509.66;5125789;29;20420;-71
2022/12/08 01:32:35;;;;;;;6.80;3.75;;;6.00;99.90;;;5.83;100.00;100507.88;5125418;29;20407;-71
2022/12/08 01:35:09;;;;;;;9.27;4.55;;;6.00;99.90;;;5.83;100.00;100504.41;5124456;28;20051;-71
2022/12/08 01:37:42;;;;;;;8.15;4.20;;;6.00;99.90;;;5.84;100.00;100503.59;5125314;29;20522;-71
2022/12/08 01:40:14;;;;;;;8.70;3.90;;;6.00;99.90;;;5.83;100.00;100507.00;5125455;29;20066;-71
2022/12/08 01:42:46;;;;;;;8.38;3.92;;;6.00;99.90;;;5.84;100.00;100508.75;5124729;29;20054;-71
2022/12/08 01:45:25;;;;;;;6.97;3.88;;;6.00;99.90;;;5.84;100.00;100503.59;5125646;28;20053;-71
2022/12/08 01:48:02;;;;;;;8.93;4.20;;;6.00;99.90;;;5.85;100.00;100505.34;5126462;29;20553;-71
2022/12/08 01:50:35;;;;;;;7.88;3.65;;;6.00;99.90;;;5.85;100.00;100505.34;5124885;29;20051;-71
2022/12/08 01:53:14;;;;;;;8.18;3.95;;;6.00;99.90;;;5.86;100.00;100496.78;5125020;29;20043;-71
2022/12/08 01:55:51;;;;;;;8.75;4.20;;;6.00;99.90;;;5.84;100.00;100493.25;5125861;28;20051;-70
2022/12/08 01:58:28;;;;;;;7.40;3.60;;;6.00;99.90;;;5.85;100.00;100501.06;5124756;29;20051;-71
2022/12/08 02:01:01;;;;;;;8.20;3.55;;;6.00;99.90;;;5.86;100.00;100499.38;5124622;29;20047;-72
2022/12/08 02:03:41;;;;;;;7.93;4.00;;;6.00;99.90;;;5.86;100.00;100497.66;5125440;29;20058;-71
2022/12/08 02:06:14;;;;;;;6.28;3.60;;;6.10;99.90;;;5.86;100.00;100494.19;5126154;28;20496;-71
2022/12/08 02:08:48;;;;;;;7.55;3.78;;;6.00;99.90;;;5.87;100.00;100488.22;5125566;29;20047;-71
2022/12/08 02:11:21;;;;;;;7.15;3.30;;;6.10;99.90;;;5.87;100.00;100494.28;5125925;29;20381;-71
2022/12/08 02:13:55;;;;;;;6.38;3.55;;;6.10;99.90;;;5.88;100.00;100490.88;5125102;28;20404;-71
2022/12/08 02:16:40;;;;;;;6.18;3.78;;;6.10;99.90;;;5.89;100.00;100487.47;5125316;28;20055;-71
2022/12/08 02:19:55;;;;;;;5.82;2.92;;;6.10;99.90;;;5.89;100.00;100486.59;5125648;29;20130;-71
2022/12/08 02:22:38;;;;;;;6.95;3.83;;;6.10;99.90;;;5.88;100.00;100477.06;5119457;28;20055;-71
2022/12/08 02:25:22;;;;;;;6.22;3.20;;;6.10;99.90;;;5.90;100.00;100478.03;5123417;28;20110;-71
2022/12/08 02:28:04;;;;;;;6.55;3.45;;;6.10;99.90;;;5.90;100.00;100478.91;5125782;29;20047;-71
2022/12/08 02:30:49;;;;;;;5.50;3.30;;;6.10;99.90;;;5.91;100.00;100474.66;5124898;28;20057;-71
2022/12/08 02:34:08;;;;;;;7.13;3.20;;;6.10;99.90;;;5.92;100.00;100471.25;5125183;28;20653;-71
2022/12/08 02:36:51;;;;;;;6.20;3.63;;;6.10;99.90;;;5.92;100.00;100471.25;5109793;29;20078;-70
2022/12/08 02:39:35;;;;;;;6.70;3.78;;;6.10;99.90;;;5.92;100.00;100468.66;5125037;29;20121;-71
2022/12/08 02:42:17;;;;;;;6.03;3.03;;;6.10;99.90;;;5.91;100.00;100461.72;5125333;29;20523;-70
2022/12/08 02:44:54;;;;;;;;;;;6.10;99.90;;;5.90;100.00;100455.63;5124726;28;20051;-70
2022/12/08 02:47:28;;;;;;;5.63;3.30;;;6.10;99.90;;;5.92;100.00;100455.72;5125021;29;19977;-70
2022/12/08 02:50:01;;;;;;;6.68;3.25;;;6.10;99.90;;;5.93;100.00;100449.72;5125109;28;20047;-70
2022/12/08 02:52:43;;;;;;;5.88;3.22;;;6.10;99.90;;;5.93;100.00;100442.88;5125012;28;20039;-70
2022/12/08 02:55:25;;;;;;;6.25;3.53;;;6.10;99.90;;;5.92;100.00;100445.38;5124198;28;20055;-71
2022/12/08 02:58:22;;;;;;;7.13;3.00;;;6.10;99.90;;;5.93;100.00;100441.97;5117462;28;20051;-70
2022/12/08 03:01:12;;;;;;;6.40;3.67;;;6.10;99.90;;;5.92;100.00;100435.91;5124890;29;20051;-71
2022/12/08 03:03:54;;;;;;;6.63;3.28;;;6.10;99.90;;;5.93;100.00;100431.63;5124342;29;20062;-70
2022/12/08 03:06:35;;;;;;;6.60;3.58;;;6.10;99.90;;;5.94;100.00;100430.84;5124427;28;20055;-71
2022/12/08 03:09:17;;;;;;;4.85;3.17;;;6.10;99.90;;;5.93;100.00;100424.78;5123823;29;20051;-71
2022/12/08 03:11:56;;;;;;;8.13;4.03;;;6.10;99.90;;;5.93;100.00;100422.19;5123507;29;20055;-71
2022/12/08 03:14:30;;;;;;;6.30;3.60;;;6.10;99.90;;;5.93;100.00;100423.84;5122880;28;20480;-71
2022/12/08 03:17:03;;;;;;;5.50;3.22;;;6.10;99.90;;;5.93;100.00;100421.25;5124478;28;20122;-71
2022/12/08 03:19:40;;;;;;;5.18;3.15;;;6.10;99.90;;;5.93;100.00;100416.09;5124304;28;20518;-71
2022/12/08 03:22:17;;;;;;;5.00;3.17;;;6.10;99.90;;;5.93;100.00;100414.44;5124552;29;20526;-71
2022/12/08 03:24:51;;;;;;;4.60;2.97;;;6.10;99.90;;;5.93;100.00;100405.75;5123887;28;20049;-72
2022/12/08 03:27:28;;;;;;;5.45;2.90;;;6.10;99.90;;;5.94;100.00;100412.72;5124363;28;20126;-71
2022/12/08 03:30:02;;;;;;;4.85;3.05;;;6.10;99.90;;;5.94;100.00;100410.13;5124374;29;20039;-71
2022/12/08 03:32:37;;;;;;;5.88;3.00;;;6.10;99.90;;;5.93;100.00;100396.31;5122888;28;20051;-71
2022/12/08 03:35:14;;;;;;;5.03;2.90;;;6.10;99.90;;;5.94;100.00;100392.03;5124070;28;20047;-71
2022/12/08 03:37:48;;;;;;;6.15;3.65;;;6.10;99.90;;;5.96;100.00;100392.97;5124031;29;20043;-71
2022/12/08 03:40:21;;;;;;;4.75;3.03;;;6.10;99.90;;;5.95;100.00;100391.19;5124244;29;20078;-71
2022/12/08 03:42:54;;;;;;;5.55;2.95;;;6.10;99.90;;;5.95;100.00;100383.44;5123096;29;20062;-71
2022/12/08 03:45:26;;;;;;;5.25;2.90;;;6.10;99.90;;;5.96;100.00;100380.03;5121914;28;20046;-71
2022/12/08 03:47:58;;;;;;;5.03;3.15;;;6.10;99.90;;;5.96;100.00;100380.03;5123817;29;20054;-71
2022/12/08 03:50:30;;;;;;;5.43;2.92;;;6.20;99.90;;;5.95;100.00;100373.09;5122690;29;20052;-71
2022/12/08 03:53:04;;;;;;;4.35;2.70;;;6.10;99.90;;;5.95;100.00;100373.97;5124188;28;20385;-71
2022/12/08 03:55:36;;;;;;;6.10;3.22;;;6.10;99.90;;;5.95;100.00;100367.91;5122569;28;20043;-71
2022/12/08 03:58:08;;;;;;;6.57;2.85;;;6.10;99.90;;;5.96;100.00;100367.09;5123655;29;20427;-71
2022/12/08 04:00:40;;;;;;;4.88;3.13;;;6.10;99.90;;;5.97;100.00;100366.28;5122729;29;20059;-71
2022/12/08 04:03:12;;;;;;;8.05;3.42;;;6.10;99.90;;;5.94;100.00;100364.44;5123857;29;20055;-71
2022/12/08 04:05:44;;;;;;;7.95;4.05;;;6.10;99.90;;;5.94;100.00;100366.16;5121881;28;20051;-71
2022/12/08 04:08:18;;;;;;;6.32;3.47;;;6.10;99.90;;;5.93;100.00;100360.09;5123799;28;20047;-71
2022/12/08 04:10:50;;;;;;;7.10;3.55;;;6.10;99.90;;;5.93;100.00;100364.34;5123587;29;20725;-71
2022/12/08 04:13:22;;;;;;;7.03;3.83;;;6.10;99.90;;;5.92;100.00;100357.41;5122324;29;20490;-71
2022/12/08 04:15:54;;;;;;;5.72;3.10;;;6.10;99.90;;;5.90;100.00;100353.84;5123279;28;20054;-71
2022/12/08 04:18:26;;;;;;;7.85;3.40;;;6.10;99.90;;;5.90;100.00;100349.56;5123912;28;20046;-71
2022/12/08 04:20:59;;;;;;;6.60;4.00;;;6.10;99.90;;;5.91;100.00;100350.47;5123780;29;20062;-71
2022/12/08 04:23:32;;;;;;;6.78;2.95;;;6.10;99.90;;;5.91;100.00;100350.47;5123150;28;20047;-72
2022/12/08 04:26:05;;;;;;;6.53;3.45;;;6.10;99.90;;;5.89;100.00;100355.53;5122098;28;20059;-71
2022/12/08 04:28:37;;;;;;;6.55;3.28;;;6.10;99.90;;;5.88;100.00;100348.59;5123219;28;20500;-71
2022/12/08 04:31:11;;;;;;;7.13;3.42;;;6.10;99.90;;;5.88;100.00;100351.19;5123148;28;20106;-71
2022/12/08 04:33:44;;;;;;;8.32;3.85;;;6.10;99.90;;;5.87;100.00;100349.44;5121195;29;20058;-70
2022/12/08 04:36:16;;;;;;;6.00;3.33;;;6.10;99.90;;;5.87;100.00;100340.78;5123342;28;20051;-70
2022/12/08 04:38:50;;;;;;;5.93;3.13;;;6.10;99.90;;;5.86;100.00;100341.56;5123282;29;20058;-70
2022/12/08 04:41:22;;;;;;;6.60;3.50;;;6.10;99.90;;;5.87;100.00;100335.63;5123261;29;20054;-71
2022/12/08 04:43:54;;;;;;;6.65;3.60;;;6.10;99.90;;;5.87;100.00;100340.78;5122493;28;20043;-70
2022/12/08 04:46:26;;;;;;;9.23;3.20;;;6.10;99.90;;;5.87;100.00;100340.78;5126022;28;20051;-70
2022/12/08 04:48:59;;;;;;;6.07;3.35;;;6.10;99.90;;;5.88;100.00;100339.97;5126585;29;20527;-70
2022/12/08 04:51:31;;;;;;;5.90;3.33;;;6.10;99.90;;;5.86;100.00;100336.41;5126983;28;20068;-70
2022/12/08 04:54:05;;;;;;;5.93;3.25;;;6.10;99.90;;;5.86;100.00;100341.56;5125423;28;20134;-70
2022/12/08 04:56:37;;;;;;;5.13;3.15;;;6.10;99.90;;;5.87;100.00;100339.09;5126609;29;20098;-70
2022/12/08 04:59:09;;;;;;;6.57;3.75;;;6.10;99.90;;;5.87;100.00;100340.78;5126611;29;20070;-70
2022/12/08 05:01:41;;;;;;;6.97;2.97;;;6.10;99.90;;;5.85;100.00;100340.69;5126483;29;20043;-71
2022/12/08 05:04:13;;;;;;;6.47;3.35;;;6.10;99.90;;;5.84;100.00;100328.56;5125853;28;20050;-71
2022/12/08 05:06:45;;;;;;;5.00;2.83;;;6.00;99.90;;;5.83;100.00;100336.28;5126676;28;20404;-71
2022/12/08 05:09:19;;;;;;;5.28;2.70;;;6.00;99.90;;;5.82;100.00;100330.22;5126157;29;20150;-71
2022/12/08 05:11:51;;;;;;;7.30;3.30;;;6.00;99.90;;;5.83;100.00;100328.50;5125816;29;20520;-71
2022/12/08 05:14:23;;;;;;;7.53;3.83;;;6.00;99.90;;;5.80;100.00;100325.75;5125502;28;20054;-71
2022/12/08 05:16:56;;;;;;;6.75;3.13;;;6.00;99.90;;;5.80;100.00;100336.13;5126600;29;20047;-71
2022/12/08 05:19:28;;;;;;;6.50;3.35;;;6.00;99.90;;;5.78;100.00;100328.28;5126163;29;20047;-71
2022/12/08 05:22:01;;;;;;;7.47;3.28;;;6.00;99.90;;;5.78;100.00;100328.28;5125973;29;20288;-71
2022/12/08 05:24:35;;;;;;;6.15;3.47;;;6.00;99.90;;;5.78;100.00;100330.00;5125650;28;20214;-71
2022/12/08 05:27:07;;;;;;;7.18;3.40;;;6.00;99.90;;;5.77;100.00;100320.47;5126013;29;20051;-71
2022/12/08 05:29:39;;;;;;;8.15;4.18;;;6.00;99.90;;;5.77;100.00;100315.28;5126039;29;20500;-71
2022/12/08 05:32:11;;;;;;;7.45;3.88;;;6.00;99.90;;;5.78;100.00;100314.47;5126360;28;20126;-71
2022/12/08 05:34:43;;;;;;;7.25;3.50;;;6.00;99.90;;;5.78;100.00;100319.66;5125483;28;20047;-71
2022/12/08 05:37:16;;;;;;;8.80;3.33;;;6.00;99.90;;;5.80;100.00;100305.06;5126091;29;20491;-71
2022/12/08 05:39:49;;;;;;;9.13;3.80;;;6.00;99.90;;;5.79;100.00;100313.66;5126321;29;20051;-70
2022/12/08 05:42:21;;;;;;;9.55;4.20;;;6.00;99.90;;;5.79;100.00;100305.91;5126108;29;20508;-70
2022/12/08 05:44:53;;;;;;;9.20;3.75;;;6.00;99.90;;;5.80;100.00;100299.91;5186262;23;20061;-67
2022/12/08 05:47:26;;;;;;;12.98;4.97;;;6.00;99.90;;;5.80;100.00;100305.06;5152719;28;20050;-68
2022/12/08 05:49:58;;;;;;;8.38;3.90;;;6.00;99.90;;;5.79;100.00;100303.31;5146313;28;20058;-66
2022/12/08 05:52:30;;;;;;;8.32;3.90;;;6.00;99.90;;;5.79;100.00;100299.03;5126134;29;20051;-66
2022/12/08 05:55:04;;;;;;;8.02;4.07;;;6.00;99.90;;;5.80;100.00;100294.72;5117814;29;20508;-67
2022/12/08 05:57:36;;;;;;;9.95;4.35;;;6.00;99.90;;;5.80;100.00;100293.03;5105075;29;20044;-68
2022/12/08 06:00:10;;;;;;;10.10;4.72;;;6.00;99.90;;;5.80;100.00;100297.31;5106259;29;20047;-67
2022/12/08 06:02:48;;;;;;;10.57;4.50;;;6.00;99.90;;;5.78;100.00;100283.44;5106074;29;20043;-67
2022/12/08 06:05:20;;;;;;;8.18;4.07;;;6.00;99.90;;;5.79;100.00;100283.50;5105405;29;20055;-67
2022/12/08 06:07:52;;;;;;;10.55;4.28;;;6.00;99.90;;;5.81;100.00;100283.59;5106189;29;20044;-67
2022/12/08 06:10:25;;;;;;;9.40;4.20;;;6.00;99.90;;;5.79;100.00;100278.31;5105930;29;20051;-67
2022/12/08 06:12:57;;;;;;;11.65;4.47;;;6.00;99.90;;;5.79;100.00;100283.50;5104480;29;20051;-67
2022/12/08 06:15:29;;;;;;;9.73;4.63;;;6.00;99.90;;;5.80;100.00;100284.38;5104196;29;20432;-67
2022/12/08 06:18:02;;;;;;;9.38;4.75;;;6.00;99.90;;;5.79;100.00;100282.63;5105762;29;20040;-68
2022/12/08 06:20:35;;;;;;;11.13;4.63;;;6.00;99.90;;;5.81;100.00;100292.25;5105657;29;20052;-68
2022/12/08 06:23:07;;;;;;;11.25;5.38;;;6.00;99.90;;;5.80;100.00;100276.63;5105683;29;20122;-67
2022/12/08 06:25:40;;;;;;;11.18;4.97;;;6.00;99.90;;;5.81;100.00;100292.25;5105225;29;20405;-67
2022/12/08 06:28:13;;;;;;;11.25;4.47;;;6.00;99.90;;;5.83;100.00;100289.72;5105714;29;20048;-67
2022/12/08 06:30:45;;;;;;;10.07;4.70;;;6.00;99.90;;;5.83;100.00;100292.31;5105448;29;20087;-67
2022/12/08 06:33:17;;;;;;;13.95;5.22;;;6.00;99.90;;;5.83;100.00;100292.31;5105737;29;20543;-67
2022/12/08 06:35:49;;;;;;;10.75;5.07;;;6.00;99.90;;;5.83;100.00;100294.88;5103818;29;20527;-66
2022/12/08 06:38:21;;;;;;;10.90;4.80;;;6.00;99.90;;;5.83;100.00;100280.25;5105532;29;20134;-68
2022/12/08 06:40:55;;;;;;;12.48;5.65;;;6.00;99.90;;;5.83;100.00;100279.38;5105373;29;20075;-67
2022/12/08 06:43:28;;;;;;;13.02;5.45;;;6.00;99.90;;;5.82;100.00;100286.25;5103877;29;20079;-66
2022/12/08 06:46:01;;;;;;;12.77;5.40;;;6.00;99.90;;;5.83;100.00;100292.31;5105058;29;20048;-67
2022/12/08 06:48:34;;;;;;;12.02;5.55;;;6.00;99.90;;;5.82;100.00;100286.25;5105261;29;20043;-67
2022/12/08 06:51:08;;;;;;;10.95;5.25;;;6.00;99.90;;;5.83;100.00;100294.88;5105216;29;20122;-68
2022/12/08 06:53:42;;;;;;;14.00;5.68;;;6.00;99.90;;;5.83;100.00;100287.13;5104755;29;20135;-67
2022/12/08 06:56:18;;;;;;;12.68;5.63;;;6.00;99.90;;;5.83;100.00;100300.06;5105014;29;20051;-67
2022/12/08 06:58:50;;;;;;;12.48;5.70;;;6.00;99.90;;;5.80;100.00;100297.31;5103862;29;20058;-67
2022/12/08 07:01:23;;;;;;;11.98;5.85;;;6.00;99.90;;;5.81;100.00;100299.13;5105099;29;20058;-67
2022/12/08 07:03:55;;;;;;;10.70;5.45;;;6.00;99.90;;;5.81;100.00;100301.69;5104303;29;20047;-61
2022/12/08 07:06:27;;;;;;;12.73;6.05;;;6.00;99.90;;;5.83;100.00;100300.94;5104010;29;20115;-61
2022/12/08 07:08:59;;;;;;;13.07;5.60;;;6.00;99.90;;;5.84;100.00;100297.53;5103875;29;20098;-61
2022/12/08 07:11:33;;;;;;;12.63;5.35;;;6.10;99.90;;;5.87;100.00;100299.41;5102881;29;20055;-62
2022/12/08 07:14:05;;;;;;;10.20;4.40;;;6.10;99.90;;;5.87;100.00;100296.81;5102223;29;20047;-63
2022/12/08 07:16:38;;;;;;;11.57;5.35;;;6.10;99.90;;;5.88;100.00;100288.22;5102982;29;20145;-61
2022/12/08 07:19:11;;;;;;;10.60;5.18;;;6.00;99.90;;;5.89;100.00;100298.63;5103004;29;20079;-61
2022/12/08 07:21:45;;;;;;;10.88;4.70;;;6.00;99.90;;;5.89;100.00;100301.22;5103986;29;20471;-61
2022/12/08 07:24:17;;;;;;;11.23;5.00;;;6.10;99.90;;;5.89;100.00;100300.34;5103745;29;20044;-62
2022/12/08 07:26:50;;;;;;;10.32;4.30;;;6.10;99.90;;;5.89;100.00;100298.63;5103662;29;20048;-63
2022/12/08 07:29:22;;;;;;;10.32;4.93;;;6.10;99.90;;;5.89;100.00;100300.34;5103881;29;20044;-62
2022/12/08 07:31:54;;;;;;;10.52;4.95;;;6.10;99.90;;;5.90;100.00;100312.44;5103728;29;20049;-64
2022/12/08 07:34:27;;;;;;;9.68;4.28;;;6.10;99.90;;;5.88;100.00;100306.34;5103379;29;20465;-61
2022/12/08 07:36:59;;;;;;;10.82;5.00;;;6.10;99.90;;;5.87;100.00;100308.03;5103586;29;20148;-62
2022/12/08 07:39:31;;;;;;;9.13;4.30;;;6.10;99.90;;;5.87;100.00;100314.91;5102859;29;20047;-60
2022/12/08 07:42:04;;;;;;;14.13;5.18;;;6.10;99.90;;;5.86;100.00;100306.25;5103507;29;20047;-60
2022/12/08 07:44:37;;;;;;;11.25;4.60;;;6.10;99.90;;;5.84;100.00;100307.88;5102505;29;20035;-62
2022/12/08 07:47:09;;;;;;;10.73;5.05;;;6.00;99.90;;;5.85;100.00;100308.75;5102076;29;20409;-61
2022/12/08 07:49:41;;;;;;;10.88;4.60;;;6.00;99.90;;;5.83;100.00;100305.22;5100686;28;20139;-62
2022/12/08 07:52:13;;;;;;;11.50;4.97;;;6.00;99.90;;;5.80;100.00;100305.97;5102944;29;20047;-61
2022/12/08 07:54:45;;;;;;;8.95;4.38;;;6.00;99.90;;;5.81;100.00;100306.88;5102638;29;20532;-61
2022/12/08 07:57:18;;;;;;;10.30;4.93;;;6.00;99.90;;;5.78;100.00;100312.78;5101967;29;20131;-61
2022/12/08 07:59:51;;;;;;;10.05;5.10;;;6.00;99.90;;;5.78;100.00;100306.72;5102301;29;20047;-60
2022/12/08 08:02:23;;;;;;;8.82;4.65;;;6.00;99.90;;;5.77;100.00;100304.94;5102496;29;20055;-57
2022/12/08 08:04:55;;;;;;;11.15;4.63;;;6.00;99.90;;;5.77;100.00;100310.13;5102539;29;20051;-57
2022/12/08 08:07:27;;;;;;;12.15;5.68;;;6.00;99.90;;;5.76;100.00;100308.34;5101551;29;20055;-57
2022/12/08 08:09:59;;;;;;;14.20;5.97;;;5.90;99.90;;;5.70;100.00;100304.66;5102728;29;20054;-57
2022/12/08 08:12:32;;;;;;;15.27;5.75;;;5.90;99.90;;;5.70;100.00;100304.66;5101948;29;20047;-56
2022/12/08 08:15:08;;;;;;;12.77;5.57;;;5.90;99.90;;;5.71;100.00;100303.84;5101749;29;20087;-57
2022/12/08 08:17:40;;;;;;;12.18;5.45;;;5.90;99.90;;;5.75;100.00;100306.59;5102748;29;20048;-57
2022/12/08 08:20:14;;;;;;;15.60;7.03;;;5.90;99.90;;;5.68;100.00;100313.19;5102515;29;20077;-59
2022/12/08 08:22:49;;;;;;;;;;;5.90;99.90;;;5.61;100.00;100313.72;5106889;29;20048;-57
2022/12/08 08:25:22;;;;;;;18.23;7.93;;;5.90;99.90;;;5.62;100.00;100311.19;5105799;29;20319;-58
2022/12/08 08:27:55;;;;;;;18.15;7.93;;;5.90;99.90;;;5.50;100.00;100315.78;5106075;29;20039;-57
2022/12/08 08:30:28;;;;;;;17.00;8.02;;;5.80;99.90;;;5.40;100.00;100324.78;5106030;29;20584;-57
2022/12/08 08:33:00;;;;;;;13.75;6.57;;;5.70;99.90;;;5.33;100.00;100321.84;5106273;29;20048;-56
2022/12/08 08:35:33;;;;;;;15.65;6.95;;;5.60;99.90;;;5.27;100.00;100321.53;5105849;29;20047;-57
2022/12/08 08:38:05;;;;;;;16.45;7.00;;;5.60;99.90;;;5.21;100.00;100316.06;5105890;29;20047;-56
2022/12/08 08:40:37;;;;;;;16.98;7.40;;;5.50;99.90;;;5.19;100.00;100313.41;5105793;29;20047;-56
2022/12/08 08:43:27;;;;;;;15.35;7.63;;;5.50;99.90;;;5.17;100.00;100308.19;5105846;29;20055;-56
2022/12/08 08:46:01;;;;;;;19.40;8.38;;;5.50;99.90;;;5.17;100.00;100309.88;5068402;29;1111801;-57
2022/12/08 08:48:33;;;;;;;16.60;7.13;;;5.40;99.90;;;5.13;100.00;100310.53;5105649;29;20063;-59
2022/12/08 08:51:11;;;;;;;16.30;8.38;;;5.40;99.90;;;5.15;100.00;100314.97;5106879;29;20555;-57
2022/12/08 08:53:43;;;;;;;18.25;8.13;;;5.40;99.90;;;5.13;100.00;100314.00;5104143;29;20058;-56
2022/12/08 08:56:18;;;;;;;18.10;7.93;;;5.40;99.90;;;5.13;100.00;100310.53;5105376;29;20048;-57
2022/12/08 08:58:53;;;;;;;16.20;7.20;;;5.40;99.90;;;5.13;100.00;100303.66;5107822;29;20044;-57
2022/12/08 09:01:27;;;;;;;17.65;7.72;;;5.40;99.90;;;5.14;100.00;100308.00;5107265;29;20135;-57
2022/12/08 09:04:00;;;;;;;16.35;7.47;;;5.40;99.90;;;5.14;100.00;100307.13;5107106;29;20055;-57
2022/12/08 09:06:32;;;;;;;14.07;6.72;;;5.40;99.90;;;5.14;100.00;100300.25;5105998;29;20047;-56
2022/12/08 09:09:04;;;;;;;17.02;7.10;;;5.40;99.90;;;5.23;100.00;100301.53;5107044;29;20512;-57
2022/12/08 09:11:37;;;;;;;14.10;5.70;;;5.50;99.90;;;5.30;100.00;100306.19;5107324;29;20052;-56
2022/12/08 09:14:13;;;;;;;13.15;6.13;;;5.50;99.90;;;5.36;100.00;100307.38;5106049;29;20126;-57
2022/12/08 09:16:45;;;;;;;14.48;5.93;;;5.60;99.90;;;5.43;100.00;100308.53;5106279;29;20056;-59
2022/12/08 09:19:18;;;;;;;11.43;5.53;;;5.70;99.90;;;5.50;100.00;100308.03;5103808;29;20048;-57
2022/12/08 09:21:50;;;;;;;13.38;6.13;;;5.70;99.90;;;5.58;100.00;100308.38;5104296;29;20048;-56
2022/12/08 09:24:22;;;;;;;11.98;5.57;;;5.80;99.90;;;5.62;100.00;100311.19;5106224;29;20053;-56
2022/12/08 09:26:55;;;;;;;13.85;5.90;;;5.80;99.90;;;5.66;100.00;100313.06;5106181;29;20036;-56
2022/12/08 09:29:28;;;;;;;15.48;6.95;;;5.80;99.90;;;5.69;100.00;100309.78;5106211;29;20047;-57
2022/12/08 09:32:00;;;;;;;14.35;6.25;;;5.90;99.90;;;5.64;100.00;100316.41;5104678;29;20052;-57
2022/12/08 09:34:33;;;;;;;13.23;6.63;;;5.80;99.90;;;5.60;100.00;100317.09;5106010;29;20058;-58
2022/12/08 09:37:05;;;;;;;12.00;5.57;;;5.80;99.90;;;5.55;100.00;100314.31;5104694;29;20047;-57
2022/12/08 09:39:37;;;;;;;12.40;5.38;;;5.80;99.90;;;5.49;100.00;100310.53;5106303;29;20492;-59
2022/12/08 09:42:11;;;;;;;11.00;4.93;;;5.70;99.90;;;5.43;100.00;100318.88;5106222;29;20048;-57
2022/12/08 09:44:56;;;;;;;10.68;5.20;;;5.70;99.90;;;5.43;100.00;100308.53;5106058;29;20055;-58
2022/12/08 09:47:33;;;;;;;9.43;4.72;;;5.70;99.90;;;5.45;100.00;100312.09;5106213;29;20099;-56
2022/12/08 09:50:12;;;;;;;10.43;5.00;;;5.60;99.90;;;5.47;100.00;100302.69;5105863;29;20059;-58
2022/12/08 09:52:49;;;;;;;10.75;5.07;;;5.70;99.90;;;5.51;100.00;100309.78;5105749;29;20047;-58
2022/12/08 09:55:25;;;;;;;10.07;4.75;;;5.70;99.90;;;5.50;100.00;100310.59;5105793;29;20043;-56
2022/12/08 09:58:01;;;;;;;10.40;4.25;;;5.70;99.90;;;5.49;100.00;100308.84;5105747;29;20042;-58
2022/12/08 10:00:35;;;;;;;8.60;3.88;;;5.70;99.90;;;5.51;100.00;100304.63;5105750;29;20393;-57
2022/12/08 10:03:12;;;;;;;7.72;3.78;;;5.70;99.90;;;5.56;100.00;100305.72;5105773;29;20119;-57
2022/12/08 10:05:59;;;;;;;6.35;3.42;;;5.80;99.90;;;5.61;100.00;100303.38;5105562;29;20043;-57
2022/12/08 10:08:42;;;;;;;9.15;4.43;;;5.80;99.90;;;5.66;100.00;100296.69;5105413;29;20051;-56
2022/12/08 10:11:20;;;;;;;6.85;3.72;;;5.90;99.90;;;5.67;100.00;100299.38;5122231;28;20057;-58
2022/12/08 10:14:06;;;;;;;6.75;3.42;;;5.90;99.90;;;5.71;100.00;100292.63;5144803;28;20490;-57
2022/12/08 10:16:42;;;;;;;5.28;3.10;;;5.90;99.90;;;5.66;100.00;100289.81;5145300;28;20050;-57
2022/12/08 10:19:19;;;;;;;6.63;3.08;;;5.90;99.90;;;5.66;100.00;100287.22;5145774;28;20129;-59
2022/12/08 10:21:51;;;;;;;5.13;2.30;;;5.90;99.90;;;5.66;100.00;100286.34;5145198;28;20055;-55
2022/12/08 10:24:29;;;;;;;5.05;2.47;;;5.90;99.90;;;5.66;100.00;100282.06;5144922;28;20055;-58
2022/12/08 10:27:02;;;;;;;4.35;2.25;;;5.90;99.90;;;5.70;100.00;100288.25;5145186;28;20065;-58
2022/12/08 10:29:34;;;;;;;3.40;2.17;;;5.90;99.90;;;5.75;100.00;100285.91;5144905;28;20049;-56
2022/12/08 10:32:18;;;;;;;3.30;2.00;;;5.90;99.90;;;5.79;100.00;100277.44;5144909;28;20046;-56
2022/12/08 10:35:04;;;;;;;4.68;2.42;;;6.00;99.90;;;5.83;100.00;100269.91;5144808;28;20045;-57
2022/12/08 10:37:37;;;;;;;4.20;2.17;;;6.00;99.90;;;5.87;100.00;100277.00;5144765;28;20039;-56
2022/12/08 10:40:13;;;;;;;5.13;2.83;;;6.00;99.90;;;5.90;100.00;100268.47;5143686;28;20061;-56
2022/12/08 10:42:49;;;;;;;4.13;2.50;;;6.10;99.90;;;5.91;100.00;100265.09;5144094;28;20624;-56
2022/12/08 10:45:26;;;;;;;3.50;2.28;;;6.10;99.90;;;5.92;100.00;100265.16;5144717;28;20054;-57
2022/12/08 10:48:03;;;;;;;4.78;2.90;;;6.10;99.90;;;5.95;100.00;100264.44;5144693;28;20133;-57
2022/12/08 10:50:41;;;;;;;7.07;3.25;;;6.10;99.90;;;5.94;100.00;100267.84;5144731;28;20126;-57
2022/12/08 10:53:20;;;;;;;6.03;3.35;;;6.10;99.90;;;5.92;100.00;100266.88;5144362;28;20082;-57
2022/12/08 10:56:08;;;;;;;8.80;3.50;;;6.10;99.90;;;5.85;100.00;100257.03;5144767;28;20066;-56